sensor_id;sensor_type;location;lat;lon;timestamp;P1;durP1;ratioP1;P2;durP2;ratioP2
66741;SDS011;53654;54.152;19.432;2023-08-12T00:00:23;35.30;;;18.90;;
66741;SDS011;53654;54.152;19.432;2023-08-12T00:03:11;29.80;;;16.50;;
66741;SDS011;53654;54.152;19.432;2023-08-12T00:05:39;27.10;;;15.90;;
66741;SDS011;53654;54.152;19.432;2023-08-12T00:08:08;26.70;;;14.80;;
66741;SDS011;53654;54.152;19.432;2023-08-12T00:10:37;18.40;;;11.60;;
66741;SDS011;53654;54.152;19.432;2023-08-12T00:13:05;16.10;;;9.40;;
66741;SDS011;53654;54.152;19.432;2023-08-12T00:15:33;13.50;;;8.00;;
66741;SDS011;53654;54.152;19.432;2023-08-12T00:18:01;12.20;;;7.90;;
66741;SDS011;53654;54.152;19.432;2023-08-12T00:20:32;12.50;;;7.40;;
66741;SDS011;53654;54.152;19.432;2023-08-12T00:23:00;11.60;;;7.20;;
66741;SDS011;53654;54.152;19.432;2023-08-12T00:25:28;13.10;;;7.70;;
66741;SDS011;53654;54.152;19.432;2023-08-12T00:27:56;12.10;;;7.90;;
66741;SDS011;53654;54.152;19.432;2023-08-12T00:30:24;13.80;;;8.00;;
66741;SDS011;53654;54.152;19.432;2023-08-12T00:32:53;14.40;;;8.50;;
66741;SDS011;53654;54.152;19.432;2023-08-12T00:35:21;14.80;;;9.00;;
66741;SDS011;53654;54.152;19.432;2023-08-12T00:37:49;15.50;;;8.70;;
66741;SDS011;53654;54.152;19.432;2023-08-12T00:40:17;15.80;;;9.40;;
66741;SDS011;53654;54.152;19.432;2023-08-12T00:42:45;15.00;;;9.00;;
66741;SDS011;53654;54.152;19.432;2023-08-12T00:45:14;13.80;;;8.30;;
66741;SDS011;53654;54.152;19.432;2023-08-12T00:47:42;13.90;;;8.20;;
66741;SDS011;53654;54.152;19.432;2023-08-12T00:50:11;14.10;;;7.70;;
66741;SDS011;53654;54.152;19.432;2023-08-12T00:52:42;16.20;;;7.70;;
66741;SDS011;53654;54.152;19.432;2023-08-12T00:55:13;14.00;;;8.00;;
66741;SDS011;53654;54.152;19.432;2023-08-12T00:57:41;15.30;;;8.90;;
66741;SDS011;53654;54.152;19.432;2023-08-12T01:00:10;14.70;;;8.20;;
66741;SDS011;53654;54.152;19.432;2023-08-12T01:02:40;15.10;;;8.10;;
66741;SDS011;53654;54.152;19.432;2023-08-12T01:05:13;12.70;;;7.10;;
66741;SDS011;53654;54.152;19.432;2023-08-12T01:07:43;11.80;;;7.00;;
66741;SDS011;53654;54.152;19.432;2023-08-12T01:10:13;11.20;;;6.50;;
66741;SDS011;53654;54.152;19.432;2023-08-12T01:15:13;10.50;;;6.70;;
66741;SDS011;53654;54.152;19.432;2023-08-12T01:17:45;12.00;;;6.80;;
66741;SDS011;53654;54.152;19.432;2023-08-12T01:20:15;12.50;;;6.40;;
66741;SDS011;53654;54.152;19.432;2023-08-12T01:22:44;10.10;;;6.20;;
66741;SDS011;53654;54.152;19.432;2023-08-12T01:25:14;9.50;;;5.60;;
66741;SDS011;53654;54.152;19.432;2023-08-12T01:27:42;7.80;;;4.90;;
66741;SDS011;53654;54.152;19.432;2023-08-12T01:30:10;9.00;;;5.00;;
66741;SDS011;53654;54.152;19.432;2023-08-12T01:37:50;7.10;;;5.00;;
66741;SDS011;53654;54.152;19.432;2023-08-12T01:40:22;8.20;;;5.20;;
66741;SDS011;53654;54.152;19.432;2023-08-12T01:42:50;7.90;;;4.90;;
66741;SDS011;53654;54.152;19.432;2023-08-12T01:45:20;7.30;;;4.80;;
66741;SDS011;53654;54.152;19.432;2023-08-12T01:47:48;5.70;;;4.10;;
66741;SDS011;53654;54.152;19.432;2023-08-12T01:50:19;7.10;;;3.80;;
66741;SDS011;53654;54.152;19.432;2023-08-12T01:52:49;6.60;;;3.60;;
66741;SDS011;53654;54.152;19.432;2023-08-12T01:55:17;5.80;;;3.70;;
66741;SDS011;53654;54.152;19.432;2023-08-12T01:57:45;5.20;;;3.50;;
66741;SDS011;53654;54.152;19.432;2023-08-12T02:00:14;5.30;;;3.70;;
66741;SDS011;53654;54.152;19.432;2023-08-12T02:02:43;4.40;;;3.50;;
66741;SDS011;53654;54.152;19.432;2023-08-12T02:05:15;7.20;;;4.10;;
66741;SDS011;53654;54.152;19.432;2023-08-12T02:07:43;5.40;;;3.80;;
66741;SDS011;53654;54.152;19.432;2023-08-12T02:10:12;6.40;;;3.70;;
66741;SDS011;53654;54.152;19.432;2023-08-12T02:12:42;5.70;;;3.60;;
66741;SDS011;53654;54.152;19.432;2023-08-12T02:15:11;5.10;;;3.50;;
66741;SDS011;53654;54.152;19.432;2023-08-12T02:17:40;5.00;;;3.50;;
66741;SDS011;53654;54.152;19.432;2023-08-12T02:20:08;6.80;;;3.70;;
66741;SDS011;53654;54.152;19.432;2023-08-12T02:22:36;5.50;;;3.40;;
66741;SDS011;53654;54.152;19.432;2023-08-12T02:25:05;5.20;;;4.00;;
66741;SDS011;53654;54.152;19.432;2023-08-12T02:27:33;7.10;;;3.40;;
66741;SDS011;53654;54.152;19.432;2023-08-12T02:30:02;4.10;;;3.40;;
66741;SDS011;53654;54.152;19.432;2023-08-12T02:32:31;5.30;;;3.40;;
66741;SDS011;53654;54.152;19.432;2023-08-12T02:34:59;6.40;;;3.50;;
66741;SDS011;53654;54.152;19.432;2023-08-12T02:37:28;5.80;;;3.20;;
66741;SDS011;53654;54.152;19.432;2023-08-12T02:39:56;5.20;;;3.40;;
66741;SDS011;53654;54.152;19.432;2023-08-12T02:42:24;5.90;;;3.40;;
66741;SDS011;53654;54.152;19.432;2023-08-12T02:44:53;6.40;;;3.60;;
66741;SDS011;53654;54.152;19.432;2023-08-12T02:47:21;4.60;;;3.50;;
66741;SDS011;53654;54.152;19.432;2023-08-12T02:49:50;4.50;;;3.30;;
66741;SDS011;53654;54.152;19.432;2023-08-12T02:52:18;5.40;;;3.40;;
66741;SDS011;53654;54.152;19.432;2023-08-12T02:54:46;7.00;;;3.20;;
66741;SDS011;53654;54.152;19.432;2023-08-12T02:57:14;3.90;;;3.00;;
66741;SDS011;53654;54.152;19.432;2023-08-12T02:59:42;6.60;;;3.10;;
66741;SDS011;53654;54.152;19.432;2023-08-12T03:02:10;4.30;;;3.20;;
66741;SDS011;53654;54.152;19.432;2023-08-12T03:04:38;4.70;;;3.30;;
66741;SDS011;53654;54.152;19.432;2023-08-12T03:07:07;4.90;;;3.00;;
66741;SDS011;53654;54.152;19.432;2023-08-12T03:09:35;5.70;;;3.40;;
66741;SDS011;53654;54.152;19.432;2023-08-12T03:12:03;4.70;;;3.20;;
66741;SDS011;53654;54.152;19.432;2023-08-12T03:14:32;4.20;;;3.30;;
66741;SDS011;53654;54.152;19.432;2023-08-12T03:17:01;5.30;;;3.20;;
66741;SDS011;53654;54.152;19.432;2023-08-12T03:19:33;5.30;;;3.20;;
66741;SDS011;53654;54.152;19.432;2023-08-12T03:22:01;6.30;;;3.60;;
66741;SDS011;53654;54.152;19.432;2023-08-12T03:24:30;5.90;;;3.40;;
66741;SDS011;53654;54.152;19.432;2023-08-12T03:26:59;4.70;;;3.30;;
66741;SDS011;53654;54.152;19.432;2023-08-12T03:29:29;6.00;;;3.20;;
66741;SDS011;53654;54.152;19.432;2023-08-12T03:31:58;5.50;;;3.40;;
66741;SDS011;53654;54.152;19.432;2023-08-12T03:34:28;5.70;;;3.30;;
66741;SDS011;53654;54.152;19.432;2023-08-12T03:36:58;4.90;;;3.30;;
66741;SDS011;53654;54.152;19.432;2023-08-12T03:39:27;5.00;;;3.60;;
66741;SDS011;53654;54.152;19.432;2023-08-12T03:41:55;5.90;;;3.70;;
66741;SDS011;53654;54.152;19.432;2023-08-12T03:44:24;4.80;;;3.30;;
66741;SDS011;53654;54.152;19.432;2023-08-12T03:46:52;6.80;;;3.50;;
66741;SDS011;53654;54.152;19.432;2023-08-12T03:49:20;4.90;;;3.40;;
66741;SDS011;53654;54.152;19.432;2023-08-12T03:51:49;6.00;;;3.50;;
66741;SDS011;53654;54.152;19.432;2023-08-12T03:54:18;4.30;;;3.50;;
66741;SDS011;53654;54.152;19.432;2023-08-12T03:56:46;5.10;;;3.50;;
66741;SDS011;53654;54.152;19.432;2023-08-12T03:59:14;6.50;;;3.60;;
66741;SDS011;53654;54.152;19.432;2023-08-12T04:01:42;4.70;;;3.30;;
66741;SDS011;53654;54.152;19.432;2023-08-12T04:04:11;5.60;;;3.60;;
66741;SDS011;53654;54.152;19.432;2023-08-12T04:06:41;5.70;;;3.50;;
66741;SDS011;53654;54.152;19.432;2023-08-12T04:09:09;6.60;;;3.70;;
66741;SDS011;53654;54.152;19.432;2023-08-12T04:11:37;6.30;;;3.50;;
66741;SDS011;53654;54.152;19.432;2023-08-12T04:14:06;6.40;;;3.70;;
66741;SDS011;53654;54.152;19.432;2023-08-12T04:16:34;5.60;;;3.60;;
66741;SDS011;53654;54.152;19.432;2023-08-12T04:19:02;5.90;;;3.50;;
66741;SDS011;53654;54.152;19.432;2023-08-12T04:21:31;4.70;;;3.60;;
66741;SDS011;53654;54.152;19.432;2023-08-12T04:24:00;6.00;;;3.50;;
66741;SDS011;53654;54.152;19.432;2023-08-12T04:26:28;5.20;;;3.60;;
66741;SDS011;53654;54.152;19.432;2023-08-12T04:28:56;6.30;;;3.80;;
66741;SDS011;53654;54.152;19.432;2023-08-12T04:31:24;6.10;;;4.00;;
66741;SDS011;53654;54.152;19.432;2023-08-12T04:33:53;6.90;;;4.00;;
66741;SDS011;53654;54.152;19.432;2023-08-12T04:36:22;5.50;;;3.90;;
66741;SDS011;53654;54.152;19.432;2023-08-12T04:38:50;4.80;;;3.50;;
66741;SDS011;53654;54.152;19.432;2023-08-12T04:41:18;6.90;;;3.90;;
66741;SDS011;53654;54.152;19.432;2023-08-12T04:43:46;5.20;;;5.00;;
66741;SDS011;53654;54.152;19.432;2023-08-12T04:46:16;5.60;;;4.10;;
66741;SDS011;53654;54.152;19.432;2023-08-12T04:48:44;5.30;;;3.90;;
66741;SDS011;53654;54.152;19.432;2023-08-12T04:51:14;7.10;;;4.20;;
66741;SDS011;53654;54.152;19.432;2023-08-12T04:53:43;4.80;;;3.90;;
66741;SDS011;53654;54.152;19.432;2023-08-12T04:56:11;5.20;;;4.30;;
66741;SDS011;53654;54.152;19.432;2023-08-12T04:58:39;7.10;;;4.20;;
66741;SDS011;53654;54.152;19.432;2023-08-12T05:01:08;5.10;;;4.20;;
66741;SDS011;53654;54.152;19.432;2023-08-12T05:03:37;6.90;;;4.10;;
66741;SDS011;53654;54.152;19.432;2023-08-12T05:06:05;5.90;;;3.80;;
66741;SDS011;53654;54.152;19.432;2023-08-12T05:08:34;6.20;;;4.10;;
66741;SDS011;53654;54.152;19.432;2023-08-12T05:11:03;10.30;;;4.10;;
66741;SDS011;53654;54.152;19.432;2023-08-12T05:13:31;4.70;;;4.10;;
66741;SDS011;53654;54.152;19.432;2023-08-12T05:16:01;5.60;;;4.00;;
66741;SDS011;53654;54.152;19.432;2023-08-12T05:18:29;4.80;;;4.10;;
66741;SDS011;53654;54.152;19.432;2023-08-12T05:20:57;5.50;;;3.80;;
66741;SDS011;53654;54.152;19.432;2023-08-12T05:23:26;5.90;;;4.20;;
66741;SDS011;53654;54.152;19.432;2023-08-12T05:25:54;6.10;;;4.50;;
66741;SDS011;53654;54.152;19.432;2023-08-12T05:28:39;6.90;;;4.80;;
66741;SDS011;53654;54.152;19.432;2023-08-12T05:31:07;8.40;;;4.80;;
66741;SDS011;53654;54.152;19.432;2023-08-12T05:33:36;8.00;;;4.70;;
66741;SDS011;53654;54.152;19.432;2023-08-12T05:36:04;5.80;;;4.10;;
66741;SDS011;53654;54.152;19.432;2023-08-12T05:38:32;6.10;;;4.60;;
66741;SDS011;53654;54.152;19.432;2023-08-12T05:41:01;6.10;;;4.10;;
66741;SDS011;53654;54.152;19.432;2023-08-12T05:43:29;7.00;;;4.30;;
66741;SDS011;53654;54.152;19.432;2023-08-12T05:45:57;6.10;;;4.30;;
66741;SDS011;53654;54.152;19.432;2023-08-12T05:48:25;8.40;;;4.70;;
66741;SDS011;53654;54.152;19.432;2023-08-12T05:50:53;8.60;;;5.20;;
66741;SDS011;53654;54.152;19.432;2023-08-12T05:53:21;8.60;;;5.00;;
66741;SDS011;53654;54.152;19.432;2023-08-12T05:55:49;6.10;;;4.30;;
66741;SDS011;53654;54.152;19.432;2023-08-12T05:58:18;7.20;;;4.70;;
66741;SDS011;53654;54.152;19.432;2023-08-12T06:00:46;5.90;;;4.00;;
66741;SDS011;53654;54.152;19.432;2023-08-12T06:03:14;6.50;;;4.50;;
66741;SDS011;53654;54.152;19.432;2023-08-12T06:05:44;7.00;;;4.60;;
66741;SDS011;53654;54.152;19.432;2023-08-12T06:08:13;6.90;;;4.10;;
66741;SDS011;53654;54.152;19.432;2023-08-12T06:10:42;4.50;;;3.80;;
66741;SDS011;53654;54.152;19.432;2023-08-12T06:13:10;5.10;;;4.10;;
66741;SDS011;53654;54.152;19.432;2023-08-12T06:15:38;7.60;;;4.10;;
66741;SDS011;53654;54.152;19.432;2023-08-12T06:18:07;5.70;;;4.30;;
66741;SDS011;53654;54.152;19.432;2023-08-12T06:20:35;5.90;;;3.90;;
66741;SDS011;53654;54.152;19.432;2023-08-12T06:23:03;5.00;;;3.90;;
66741;SDS011;53654;54.152;19.432;2023-08-12T06:25:31;6.60;;;4.00;;
66741;SDS011;53654;54.152;19.432;2023-08-12T06:28:00;5.50;;;4.10;;
66741;SDS011;53654;54.152;19.432;2023-08-12T06:30:29;6.20;;;3.90;;
66741;SDS011;53654;54.152;19.432;2023-08-12T06:32:57;5.90;;;4.00;;
66741;SDS011;53654;54.152;19.432;2023-08-12T06:35:25;6.50;;;4.00;;
66741;SDS011;53654;54.152;19.432;2023-08-12T06:37:54;5.90;;;4.20;;
66741;SDS011;53654;54.152;19.432;2023-08-12T06:40:22;5.40;;;3.60;;
66741;SDS011;53654;54.152;19.432;2023-08-12T06:42:51;4.80;;;3.50;;
66741;SDS011;53654;54.152;19.432;2023-08-12T06:45:20;4.90;;;3.60;;
66741;SDS011;53654;54.152;19.432;2023-08-12T06:47:48;6.10;;;3.60;;
66741;SDS011;53654;54.152;19.432;2023-08-12T06:50:17;5.10;;;3.50;;
66741;SDS011;53654;54.152;19.432;2023-08-12T06:52:45;5.70;;;3.80;;
66741;SDS011;53654;54.152;19.432;2023-08-12T06:55:16;5.00;;;3.50;;
66741;SDS011;53654;54.152;19.432;2023-08-12T06:57:44;4.60;;;3.90;;
66741;SDS011;53654;54.152;19.432;2023-08-12T07:00:16;5.00;;;3.90;;
66741;SDS011;53654;54.152;19.432;2023-08-12T07:02:46;5.80;;;3.50;;
66741;SDS011;53654;54.152;19.432;2023-08-12T07:05:15;5.00;;;3.60;;
66741;SDS011;53654;54.152;19.432;2023-08-12T07:07:43;6.70;;;5.20;;
66741;SDS011;53654;54.152;19.432;2023-08-12T07:10:12;5.70;;;3.70;;
66741;SDS011;53654;54.152;19.432;2023-08-12T07:12:41;4.90;;;3.50;;
66741;SDS011;53654;54.152;19.432;2023-08-12T07:15:14;5.40;;;3.60;;
66741;SDS011;53654;54.152;19.432;2023-08-12T07:17:42;6.90;;;3.30;;
66741;SDS011;53654;54.152;19.432;2023-08-12T07:20:11;6.20;;;3.50;;
66741;SDS011;53654;54.152;19.432;2023-08-12T07:22:40;6.10;;;3.80;;
66741;SDS011;53654;54.152;19.432;2023-08-12T07:25:12;5.90;;;3.30;;
66741;SDS011;53654;54.152;19.432;2023-08-12T07:27:40;4.30;;;3.40;;
66741;SDS011;53654;54.152;19.432;2023-08-12T07:30:10;4.80;;;3.90;;
66741;SDS011;53654;54.152;19.432;2023-08-12T07:32:39;5.60;;;3.50;;
66741;SDS011;53654;54.152;19.432;2023-08-12T07:35:08;5.30;;;3.90;;
66741;SDS011;53654;54.152;19.432;2023-08-12T07:37:36;6.40;;;3.50;;
66741;SDS011;53654;54.152;19.432;2023-08-12T07:40:05;4.40;;;3.10;;
66741;SDS011;53654;54.152;19.432;2023-08-12T07:42:42;4.50;;;3.10;;
66741;SDS011;53654;54.152;19.432;2023-08-12T07:45:10;5.90;;;3.40;;
66741;SDS011;53654;54.152;19.432;2023-08-12T07:47:39;4.10;;;3.20;;
66741;SDS011;53654;54.152;19.432;2023-08-12T07:50:07;4.00;;;3.20;;
66741;SDS011;53654;54.152;19.432;2023-08-12T07:52:36;4.30;;;2.80;;
66741;SDS011;53654;54.152;19.432;2023-08-12T07:55:04;5.00;;;2.90;;
66741;SDS011;53654;54.152;19.432;2023-08-12T07:57:34;5.40;;;3.10;;
66741;SDS011;53654;54.152;19.432;2023-08-12T08:00:02;5.80;;;3.10;;
66741;SDS011;53654;54.152;19.432;2023-08-12T08:02:32;4.40;;;2.90;;
66741;SDS011;53654;54.152;19.432;2023-08-12T08:05:02;5.00;;;2.90;;
66741;SDS011;53654;54.152;19.432;2023-08-12T08:07:30;5.00;;;3.20;;
66741;SDS011;53654;54.152;19.432;2023-08-12T08:10:00;4.90;;;2.80;;
66741;SDS011;53654;54.152;19.432;2023-08-12T08:12:30;4.20;;;2.80;;
66741;SDS011;53654;54.152;19.432;2023-08-12T08:14:58;3.40;;;2.30;;
66741;SDS011;53654;54.152;19.432;2023-08-12T08:17:28;3.90;;;2.70;;
66741;SDS011;53654;54.152;19.432;2023-08-12T08:19:57;3.00;;;2.40;;
66741;SDS011;53654;54.152;19.432;2023-08-12T08:22:26;2.80;;;2.30;;
66741;SDS011;53654;54.152;19.432;2023-08-12T08:24:59;2.90;;;2.40;;
66741;SDS011;53654;54.152;19.432;2023-08-12T08:27:27;3.80;;;2.50;;
66741;SDS011;53654;54.152;19.432;2023-08-12T08:29:56;4.20;;;2.30;;
66741;SDS011;53654;54.152;19.432;2023-08-12T08:32:25;2.60;;;2.20;;
66741;SDS011;53654;54.152;19.432;2023-08-12T08:34:55;4.30;;;2.40;;
66741;SDS011;53654;54.152;19.432;2023-08-12T08:37:24;4.40;;;2.10;;
66741;SDS011;53654;54.152;19.432;2023-08-12T08:39:52;2.60;;;1.90;;
66741;SDS011;53654;54.152;19.432;2023-08-12T08:42:22;3.60;;;2.10;;
66741;SDS011;53654;54.152;19.432;2023-08-12T08:44:53;3.00;;;2.20;;
66741;SDS011;53654;54.152;19.432;2023-08-12T08:47:26;3.20;;;1.90;;
66741;SDS011;53654;54.152;19.432;2023-08-12T08:49:55;2.70;;;2.00;;
66741;SDS011;53654;54.152;19.432;2023-08-12T08:52:25;4.00;;;2.00;;
66741;SDS011;53654;54.152;19.432;2023-08-12T08:54:54;3.50;;;2.00;;
66741;SDS011;53654;54.152;19.432;2023-08-12T08:57:28;2.50;;;2.10;;
66741;SDS011;53654;54.152;19.432;2023-08-12T09:00:06;3.00;;;2.00;;
66741;SDS011;53654;54.152;19.432;2023-08-12T09:02:45;4.20;;;2.40;;
66741;SDS011;53654;54.152;19.432;2023-08-12T09:05:15;2.90;;;2.00;;
66741;SDS011;53654;54.152;19.432;2023-08-12T09:07:45;4.00;;;2.20;;
66741;SDS011;53654;54.152;19.432;2023-08-12T09:10:14;3.50;;;2.00;;
66741;SDS011;53654;54.152;19.432;2023-08-12T09:12:45;2.60;;;2.00;;
66741;SDS011;53654;54.152;19.432;2023-08-12T09:15:15;4.00;;;2.40;;
66741;SDS011;53654;54.152;19.432;2023-08-12T09:17:47;3.10;;;2.00;;
66741;SDS011;53654;54.152;19.432;2023-08-12T09:20:15;3.20;;;2.10;;
66741;SDS011;53654;54.152;19.432;2023-08-12T09:22:44;2.90;;;2.20;;
66741;SDS011;53654;54.152;19.432;2023-08-12T09:25:19;2.60;;;2.00;;
66741;SDS011;53654;54.152;19.432;2023-08-12T09:27:49;3.10;;;2.20;;
66741;SDS011;53654;54.152;19.432;2023-08-12T09:30:17;4.20;;;1.90;;
66741;SDS011;53654;54.152;19.432;2023-08-12T09:32:57;2.80;;;1.90;;
66741;SDS011;53654;54.152;19.432;2023-08-12T09:35:38;3.20;;;2.00;;
66741;SDS011;53654;54.152;19.432;2023-08-12T09:38:10;4.50;;;2.10;;
66741;SDS011;53654;54.152;19.432;2023-08-12T09:40:40;5.30;;;2.10;;
66741;SDS011;53654;54.152;19.432;2023-08-12T09:43:09;2.90;;;2.00;;
66741;SDS011;53654;54.152;19.432;2023-08-12T09:45:40;2.90;;;2.00;;
66741;SDS011;53654;54.152;19.432;2023-08-12T09:48:09;3.70;;;1.80;;
66741;SDS011;53654;54.152;19.432;2023-08-12T09:50:38;4.20;;;2.40;;
66741;SDS011;53654;54.152;19.432;2023-08-12T09:53:06;2.90;;;1.90;;
66741;SDS011;53654;54.152;19.432;2023-08-12T09:55:34;2.70;;;1.90;;
66741;SDS011;53654;54.152;19.432;2023-08-12T09:58:05;3.90;;;2.40;;
66741;SDS011;53654;54.152;19.432;2023-08-12T10:00:37;3.10;;;2.10;;
66741;SDS011;53654;54.152;19.432;2023-08-12T10:03:05;3.60;;;2.10;;
66741;SDS011;53654;54.152;19.432;2023-08-12T10:05:34;2.90;;;1.90;;
66741;SDS011;53654;54.152;19.432;2023-08-12T10:08:03;3.80;;;2.10;;
66741;SDS011;53654;54.152;19.432;2023-08-12T10:10:32;3.10;;;2.10;;
66741;SDS011;53654;54.152;19.432;2023-08-12T10:13:02;4.00;;;2.20;;
66741;SDS011;53654;54.152;19.432;2023-08-12T10:15:35;5.20;;;3.10;;
66741;SDS011;53654;54.152;19.432;2023-08-12T10:18:07;4.20;;;2.20;;
66741;SDS011;53654;54.152;19.432;2023-08-12T10:20:38;3.40;;;2.20;;
66741;SDS011;53654;54.152;19.432;2023-08-12T10:23:08;3.80;;;2.20;;
66741;SDS011;53654;54.152;19.432;2023-08-12T10:25:45;3.60;;;2.10;;
66741;SDS011;53654;54.152;19.432;2023-08-12T10:28:18;5.30;;;2.40;;
66741;SDS011;53654;54.152;19.432;2023-08-12T10:30:47;4.00;;;2.10;;
66741;SDS011;53654;54.152;19.432;2023-08-12T10:33:15;3.10;;;2.20;;
66741;SDS011;53654;54.152;19.432;2023-08-12T10:35:45;3.50;;;2.50;;
66741;SDS011;53654;54.152;19.432;2023-08-12T10:38:19;4.20;;;2.30;;
66741;SDS011;53654;54.152;19.432;2023-08-12T10:40:48;3.10;;;2.30;;
66741;SDS011;53654;54.152;19.432;2023-08-12T10:43:16;4.20;;;2.40;;
66741;SDS011;53654;54.152;19.432;2023-08-12T10:45:49;3.90;;;2.20;;
66741;SDS011;53654;54.152;19.432;2023-08-12T10:50:53;4.10;;;2.40;;
66741;SDS011;53654;54.152;19.432;2023-08-12T10:56:04;3.90;;;2.30;;
66741;SDS011;53654;54.152;19.432;2023-08-12T10:58:40;3.40;;;2.30;;
66741;SDS011;53654;54.152;19.432;2023-08-12T11:01:16;4.00;;;2.40;;
66741;SDS011;53654;54.152;19.432;2023-08-12T11:03:47;3.60;;;2.40;;
66741;SDS011;53654;54.152;19.432;2023-08-12T11:06:16;3.40;;;2.10;;
66741;SDS011;53654;54.152;19.432;2023-08-12T11:08:53;4.80;;;2.20;;
66741;SDS011;53654;54.152;19.432;2023-08-12T11:11:22;3.00;;;2.10;;
66741;SDS011;53654;54.152;19.432;2023-08-12T11:13:54;4.20;;;2.40;;
66741;SDS011;53654;54.152;19.432;2023-08-12T11:16:35;5.00;;;2.40;;
66741;SDS011;53654;54.152;19.432;2023-08-12T11:19:04;2.30;;;2.00;;
66741;SDS011;53654;54.152;19.432;2023-08-12T11:21:33;3.90;;;2.20;;
66741;SDS011;53654;54.152;19.432;2023-08-12T11:24:04;2.90;;;2.00;;
66741;SDS011;53654;54.152;19.432;2023-08-12T11:26:33;2.90;;;2.10;;
66741;SDS011;53654;54.152;19.432;2023-08-12T11:29:01;3.10;;;2.30;;
66741;SDS011;53654;54.152;19.432;2023-08-12T11:31:36;4.00;;;2.40;;
66741;SDS011;53654;54.152;19.432;2023-08-12T11:34:05;3.70;;;2.10;;
66741;SDS011;53654;54.152;19.432;2023-08-12T11:36:33;3.30;;;2.30;;
66741;SDS011;53654;54.152;19.432;2023-08-12T11:39:01;4.80;;;2.20;;
66741;SDS011;53654;54.152;19.432;2023-08-12T11:41:30;3.60;;;2.20;;
66741;SDS011;53654;54.152;19.432;2023-08-12T11:44:01;4.10;;;2.30;;
66741;SDS011;53654;54.152;19.432;2023-08-12T11:46:32;5.00;;;2.40;;
66741;SDS011;53654;54.152;19.432;2023-08-12T11:49:01;4.00;;;2.30;;
66741;SDS011;53654;54.152;19.432;2023-08-12T11:51:29;3.10;;;2.10;;
66741;SDS011;53654;54.152;19.432;2023-08-12T11:53:57;4.60;;;2.60;;
66741;SDS011;53654;54.152;19.432;2023-08-12T11:56:26;5.50;;;2.70;;
66741;SDS011;53654;54.152;19.432;2023-08-12T11:58:54;3.00;;;2.30;;
66741;SDS011;53654;54.152;19.432;2023-08-12T12:01:22;4.10;;;2.40;;
66741;SDS011;53654;54.152;19.432;2023-08-12T12:03:51;3.40;;;2.30;;
66741;SDS011;53654;54.152;19.432;2023-08-12T12:06:30;4.80;;;2.60;;
66741;SDS011;53654;54.152;19.432;2023-08-12T12:09:03;4.20;;;2.60;;
66741;SDS011;53654;54.152;19.432;2023-08-12T12:11:33;3.70;;;2.60;;
66741;SDS011;53654;54.152;19.432;2023-08-12T12:14:05;4.60;;;2.50;;
66741;SDS011;53654;54.152;19.432;2023-08-12T12:19:24;4.80;;;2.30;;
66741;SDS011;53654;54.152;19.432;2023-08-12T12:21:52;4.40;;;2.10;;
66741;SDS011;53654;54.152;19.432;2023-08-12T12:24:21;5.60;;;2.30;;
66741;SDS011;53654;54.152;19.432;2023-08-12T12:26:49;6.40;;;2.60;;
66741;SDS011;53654;54.152;19.432;2023-08-12T12:29:17;4.20;;;2.30;;
66741;SDS011;53654;54.152;19.432;2023-08-12T12:31:48;5.10;;;2.50;;
66741;SDS011;53654;54.152;19.432;2023-08-12T12:34:17;4.10;;;2.10;;
66741;SDS011;53654;54.152;19.432;2023-08-12T12:36:48;4.30;;;2.40;;
66741;SDS011;53654;54.152;19.432;2023-08-12T12:39:17;4.70;;;2.60;;
66741;SDS011;53654;54.152;19.432;2023-08-12T12:41:46;4.00;;;2.30;;
66741;SDS011;53654;54.152;19.432;2023-08-12T12:44:16;3.50;;;2.40;;
66741;SDS011;53654;54.152;19.432;2023-08-12T12:46:47;2.90;;;2.40;;
66741;SDS011;53654;54.152;19.432;2023-08-12T12:49:16;3.70;;;2.50;;
66741;SDS011;53654;54.152;19.432;2023-08-12T12:51:46;4.70;;;2.40;;
66741;SDS011;53654;54.152;19.432;2023-08-12T12:54:17;4.40;;;2.40;;
66741;SDS011;53654;54.152;19.432;2023-08-12T12:56:46;3.90;;;2.30;;
66741;SDS011;53654;54.152;19.432;2023-08-12T12:59:15;3.10;;;2.20;;
66741;SDS011;53654;54.152;19.432;2023-08-12T13:01:44;4.50;;;2.10;;
66741;SDS011;53654;54.152;19.432;2023-08-12T13:04:25;6.00;;;2.50;;
66741;SDS011;53654;54.152;19.432;2023-08-12T13:06:53;2.70;;;2.20;;
66741;SDS011;53654;54.152;19.432;2023-08-12T13:09:26;3.70;;;2.50;;
66741;SDS011;53654;54.152;19.432;2023-08-12T13:11:56;3.50;;;2.40;;
66741;SDS011;53654;54.152;19.432;2023-08-12T13:14:27;4.90;;;2.00;;
66741;SDS011;53654;54.152;19.432;2023-08-12T13:16:59;4.40;;;2.50;;
66741;SDS011;53654;54.152;19.432;2023-08-12T13:19:27;3.40;;;2.30;;
66741;SDS011;53654;54.152;19.432;2023-08-12T13:22:00;5.00;;;2.40;;
66741;SDS011;53654;54.152;19.432;2023-08-12T13:24:33;4.10;;;2.20;;
66741;SDS011;53654;54.152;19.432;2023-08-12T13:27:02;4.00;;;2.30;;
66741;SDS011;53654;54.152;19.432;2023-08-12T13:29:31;4.40;;;2.50;;
66741;SDS011;53654;54.152;19.432;2023-08-12T13:32:00;3.60;;;2.40;;
66741;SDS011;53654;54.152;19.432;2023-08-12T13:34:34;3.20;;;2.30;;
66741;SDS011;53654;54.152;19.432;2023-08-12T13:37:05;4.10;;;2.40;;
66741;SDS011;53654;54.152;19.432;2023-08-12T13:39:34;4.10;;;2.20;;
66741;SDS011;53654;54.152;19.432;2023-08-12T13:42:03;4.70;;;2.40;;
66741;SDS011;53654;54.152;19.432;2023-08-12T13:44:32;4.70;;;2.40;;
66741;SDS011;53654;54.152;19.432;2023-08-12T13:47:01;4.20;;;2.40;;
66741;SDS011;53654;54.152;19.432;2023-08-12T13:49:34;4.10;;;2.30;;
66741;SDS011;53654;54.152;19.432;2023-08-12T13:52:03;3.70;;;2.20;;
66741;SDS011;53654;54.152;19.432;2023-08-12T13:54:32;5.80;;;2.40;;
66741;SDS011;53654;54.152;19.432;2023-08-12T13:57:04;3.70;;;2.40;;
66741;SDS011;53654;54.152;19.432;2023-08-12T13:59:33;3.60;;;2.20;;
66741;SDS011;53654;54.152;19.432;2023-08-12T14:02:09;5.70;;;2.30;;
66741;SDS011;53654;54.152;19.432;2023-08-12T14:04:39;4.30;;;2.20;;
66741;SDS011;53654;54.152;19.432;2023-08-12T14:07:07;4.80;;;2.80;;
66741;SDS011;53654;54.152;19.432;2023-08-12T14:09:36;4.30;;;2.10;;
66741;SDS011;53654;54.152;19.432;2023-08-12T14:12:04;5.20;;;2.10;;
66741;SDS011;53654;54.152;19.432;2023-08-12T14:14:41;4.10;;;2.20;;
66741;SDS011;53654;54.152;19.432;2023-08-12T14:17:09;4.40;;;2.40;;
66741;SDS011;53654;54.152;19.432;2023-08-12T14:19:44;5.30;;;2.40;;
66741;SDS011;53654;54.152;19.432;2023-08-12T14:22:15;3.50;;;2.40;;
66741;SDS011;53654;54.152;19.432;2023-08-12T14:24:44;4.70;;;2.50;;
66741;SDS011;53654;54.152;19.432;2023-08-12T14:27:14;3.40;;;2.30;;
66741;SDS011;53654;54.152;19.432;2023-08-12T14:29:43;3.80;;;2.30;;
66741;SDS011;53654;54.152;19.432;2023-08-12T14:32:11;5.70;;;4.80;;
66741;SDS011;53654;54.152;19.432;2023-08-12T14:34:40;4.00;;;1.90;;
66741;SDS011;53654;54.152;19.432;2023-08-12T14:37:08;4.50;;;2.00;;
66741;SDS011;53654;54.152;19.432;2023-08-12T14:39:36;4.40;;;2.60;;
66741;SDS011;53654;54.152;19.432;2023-08-12T14:42:04;4.10;;;2.40;;
66741;SDS011;53654;54.152;19.432;2023-08-12T14:44:33;4.60;;;2.40;;
66741;SDS011;53654;54.152;19.432;2023-08-12T14:47:04;5.10;;;2.70;;
66741;SDS011;53654;54.152;19.432;2023-08-12T14:49:32;4.50;;;3.00;;
66741;SDS011;53654;54.152;19.432;2023-08-12T14:52:00;4.50;;;2.40;;
66741;SDS011;53654;54.152;19.432;2023-08-12T14:54:29;5.90;;;2.70;;
66741;SDS011;53654;54.152;19.432;2023-08-12T14:56:57;3.50;;;2.40;;
66741;SDS011;53654;54.152;19.432;2023-08-12T14:59:25;3.30;;;2.10;;
66741;SDS011;53654;54.152;19.432;2023-08-12T15:01:53;4.90;;;3.30;;